createdAt,value
2023-03-08T00:01:30.469Z,6.93
2023-03-08T00:03:58.678Z,7.05
2023-03-08T00:06:26.873Z,7.30
2023-03-08T00:08:58.390Z,7.07
2023-03-08T00:11:26.635Z,7.30
2023-03-08T00:13:55.500Z,7.13
2023-03-08T00:16:23.287Z,7.53
2023-03-08T00:18:51.034Z,7.20
2023-03-08T00:21:19.339Z,6.65
2023-03-08T00:23:47.320Z,7.67
2023-03-08T00:26:15.251Z,7.40
2023-03-08T00:28:43.212Z,7.18
2023-03-08T00:31:12.599Z,7.63
2023-03-08T00:33:40.842Z,7.90
2023-03-08T00:36:10.764Z,7.60
2023-03-08T00:38:38.745Z,7.05
2023-03-08T00:41:07.196Z,7.47
2023-03-08T00:43:35.015Z,7.80
2023-03-08T00:46:04.520Z,7.20
2023-03-08T00:48:32.260Z,8.77
2023-03-08T00:50:59.959Z,7.93
2023-03-08T00:53:27.701Z,8.25
2023-03-08T00:55:56.946Z,8.33
2023-03-08T00:58:25.307Z,8.27
2023-03-08T01:00:53.467Z,8.65
2023-03-08T01:03:24.371Z,9.27
2023-03-08T01:05:54.094Z,8.85
2023-03-08T01:08:22.542Z,8.27
2023-03-08T01:10:51.109Z,9.30
2023-03-08T01:13:19.285Z,8.45
2023-03-08T01:15:47.412Z,9.70
2023-03-08T01:18:15.092Z,9.60
2023-03-08T01:20:43.080Z,9.55
2023-03-08T01:23:11.013Z,9.48
2023-03-08T01:25:38.612Z,9.48
2023-03-08T01:28:06.308Z,9.30
2023-03-08T01:30:33.943Z,9.18
2023-03-08T01:33:01.580Z,9.35
2023-03-08T01:35:29.258Z,9.43
2023-03-08T01:37:56.953Z,10.27
2023-03-08T01:40:24.731Z,10.05
2023-03-08T01:42:52.378Z,10.13
2023-03-08T01:45:38.856Z,10.15
2023-03-08T01:48:06.690Z,10.40
2023-03-08T01:50:54.541Z,9.88
2023-03-08T01:53:22.402Z,10.40
2023-03-08T01:55:50.025Z,10.38
2023-03-08T01:58:17.999Z,11.07
2023-03-08T02:00:45.704Z,10.63
2023-03-08T02:03:13.657Z,11.25
2023-03-08T02:05:43.316Z,10.97
2023-03-08T02:08:20.865Z,11.52
2023-03-08T02:10:50.549Z,11.30
2023-03-08T02:13:20.365Z,10.85
2023-03-08T02:15:49.770Z,11.83
2023-03-08T02:18:19.670Z,11.98
2023-03-08T02:20:47.320Z,11.68
2023-03-08T02:23:22.698Z,11.55
2023-03-08T02:25:54.605Z,11.60
2023-03-08T02:28:23.514Z,10.98
2023-03-08T02:30:53.957Z,11.53
2023-03-08T02:33:21.727Z,10.90
2023-03-08T02:35:50.933Z,10.25
2023-03-08T02:38:19.232Z,11.53
2023-03-08T02:40:47.106Z,10.65
2023-03-08T02:43:14.882Z,10.60
2023-03-08T02:45:42.502Z,10.27
2023-03-08T02:48:10.386Z,10.95
2023-03-08T02:50:38.125Z,10.30
2023-03-08T02:53:06.085Z,10.25
2023-03-08T02:55:36.360Z,9.82
2023-03-08T02:58:09.564Z,9.80
2023-03-08T03:00:37.307Z,10.10
2023-03-08T03:03:05.225Z,9.90
2023-03-08T03:05:32.816Z,9.73
2023-03-08T03:08:03.198Z,10.25
2023-03-08T03:10:31.174Z,9.30
2023-03-08T03:12:59.001Z,9.68
2023-03-08T03:15:30.421Z,9.23
2023-03-08T03:18:00.149Z,9.20
2023-03-08T03:20:27.810Z,9.38
2023-03-08T03:22:55.415Z,9.18
2023-03-08T03:25:28.791Z,9.30
2023-03-08T03:27:57.458Z,8.95
2023-03-08T03:30:28.014Z,9.00
2023-03-08T03:32:55.733Z,8.68
2023-03-08T03:35:29.003Z,8.90
2023-03-08T03:37:56.797Z,8.82
2023-03-08T03:40:24.858Z,9.00
2023-03-08T03:42:57.235Z,8.60
2023-03-08T03:45:25.404Z,8.45
2023-03-08T03:47:53.750Z,8.35
2023-03-08T03:50:21.412Z,8.60
2023-03-08T03:53:00.458Z,8.18
2023-03-08T03:55:29.266Z,7.93
2023-03-08T03:57:57.220Z,8.07
2023-03-08T04:00:24.954Z,7.75
2023-03-08T04:03:04.378Z,7.60
2023-03-08T04:05:33.528Z,7.80
2023-03-08T04:08:01.280Z,7.63
2023-03-08T04:10:32.619Z,7.47
2023-03-08T04:13:00.892Z,7.38
2023-03-08T04:15:29.126Z,7.67
2023-03-08T04:17:59.268Z,7.60
2023-03-08T04:20:29.872Z,7.53
2023-03-08T04:22:59.940Z,7.30
2023-03-08T04:25:33.440Z,7.20
2023-03-08T04:28:02.080Z,7.50
2023-03-08T04:30:30.699Z,7.40
2023-03-08T04:32:59.540Z,7.75
2023-03-08T04:35:34.937Z,7.55
2023-03-08T04:38:03.844Z,7.38
2023-03-08T04:40:31.542Z,7.10
2023-03-08T04:43:03.446Z,7.00
2023-03-08T04:45:38.712Z,7.45
2023-03-08T04:48:11.243Z,6.97
2023-03-08T04:50:41.816Z,7.10
2023-03-08T04:53:10.740Z,7.17
2023-03-08T04:55:38.510Z,7.07
2023-03-08T04:58:06.581Z,6.90
2023-03-08T05:00:34.247Z,7.45
2023-03-08T05:03:02.056Z,6.55
2023-03-08T05:05:30.020Z,6.95
2023-03-08T05:08:05.315Z,7.30
2023-03-08T05:10:34.740Z,7.13
2023-03-08T05:13:02.387Z,7.45
2023-03-08T05:15:30.059Z,7.20
2023-03-08T05:18:00.409Z,7.43
2023-03-08T05:20:28.707Z,7.43
2023-03-08T05:22:59.321Z,7.45
2023-03-08T05:25:35.952Z,7.10
2023-03-08T05:28:03.674Z,6.75
2023-03-08T05:30:31.646Z,7.75
2023-03-08T05:32:59.803Z,7.90
2023-03-08T05:35:27.718Z,7.43
2023-03-08T05:37:56.726Z,7.25
2023-03-08T05:40:24.964Z,7.40
2023-03-08T05:42:55.243Z,7.25
2023-03-08T05:45:24.666Z,7.15
2023-03-08T05:47:53.502Z,7.23
2023-03-08T05:50:21.136Z,7.32
2023-03-08T05:52:51.253Z,6.70
2023-03-08T05:55:23.361Z,6.95
2023-03-08T05:57:51.524Z,7.00
2023-03-08T06:00:19.431Z,7.27
2023-03-08T06:02:51.845Z,7.43
2023-03-08T06:05:21.324Z,7.35
2023-03-08T06:07:51.060Z,7.60
2023-03-08T06:10:19.262Z,7.45
2023-03-08T06:12:47.115Z,7.68
2023-03-08T06:15:17.820Z,7.30
2023-03-08T06:17:45.770Z,7.47
2023-03-08T06:20:17.361Z,6.57
2023-03-08T06:22:48.616Z,7.65
2023-03-08T06:25:16.418Z,7.90
2023-03-08T06:27:44.864Z,7.72
2023-03-08T06:30:23.868Z,8.00
2023-03-08T06:32:52.861Z,7.47
2023-03-08T06:35:20.689Z,7.15
2023-03-08T06:37:54.685Z,7.90
2023-03-08T06:40:22.535Z,8.18
2023-03-08T06:42:50.197Z,7.70
2023-03-08T06:45:17.869Z,7.60
2023-03-08T06:47:46.031Z,8.35
2023-03-08T06:50:14.673Z,8.30
2023-03-08T06:52:45.371Z,8.25
2023-03-08T06:55:14.390Z,8.63
2023-03-08T06:57:42.524Z,9.10
2023-03-08T07:00:11.503Z,7.90
2023-03-08T07:02:39.176Z,8.37
2023-03-08T07:05:06.928Z,9.05
2023-03-08T07:07:35.775Z,8.30
2023-03-08T07:10:04.475Z,9.30
2023-03-08T07:12:32.381Z,10.00
2023-03-08T07:15:00.847Z,9.55
2023-03-08T07:17:28.500Z,9.70
2023-03-08T07:19:56.131Z,10.77
2023-03-08T07:22:23.832Z,9.65
2023-03-08T07:24:51.449Z,10.00
2023-03-08T07:27:19.090Z,10.07
2023-03-08T07:29:46.747Z,10.10
2023-03-08T07:32:14.499Z,10.77
2023-03-08T07:34:42.267Z,10.93
2023-03-08T07:37:16.909Z,11.13
2023-03-08T07:39:44.557Z,11.45
2023-03-08T07:42:12.239Z,11.63
2023-03-08T07:44:40.479Z,11.63
2023-03-08T07:47:08.573Z,11.75
2023-03-08T07:49:36.177Z,12.43
2023-03-08T07:52:03.829Z,12.30
2023-03-08T07:54:31.490Z,11.63
2023-03-08T07:56:59.217Z,11.52
2023-03-08T07:59:27.016Z,11.37
2023-03-08T08:01:54.675Z,11.70
2023-03-08T08:04:23.396Z,11.57
2023-03-08T08:06:51.096Z,11.90
2023-03-08T08:09:18.939Z,11.30
2023-03-08T08:11:46.611Z,10.70
2023-03-08T08:14:14.251Z,10.70
2023-03-08T08:16:41.965Z,10.50
2023-03-08T08:19:12.367Z,10.45
2023-03-08T08:21:40.049Z,10.80
2023-03-08T08:24:08.044Z,10.00
2023-03-08T08:26:35.675Z,10.45
2023-03-08T08:29:03.365Z,10.45
2023-03-08T08:31:31.386Z,10.52
2023-03-08T08:33:59.475Z,10.02
2023-03-08T08:36:27.164Z,10.52
2023-03-08T08:38:55.007Z,11.25
2023-03-08T08:41:23.192Z,10.60
2023-03-08T08:43:51.232Z,10.82
2023-03-08T08:46:18.901Z,11.65
2023-03-08T08:48:46.616Z,10.48
2023-03-08T08:51:14.782Z,11.05
2023-03-08T08:53:44.167Z,11.02
2023-03-08T08:56:26.635Z,11.00
2023-03-08T08:58:57.430Z,11.07
2023-03-08T09:01:26.402Z,11.52
2023-03-08T09:03:54.148Z,11.20
2023-03-08T09:06:22.241Z,11.33
2023-03-08T09:08:50.947Z,11.93
2023-03-08T09:11:18.734Z,10.70
2023-03-08T09:13:46.390Z,12.17
2023-03-08T09:16:21.633Z,11.30
2023-03-08T09:18:49.656Z,12.00
2023-03-08T09:21:17.391Z,12.38
2023-03-08T09:23:45.284Z,12.63
2023-03-08T09:26:12.930Z,12.25
2023-03-08T09:28:40.836Z,13.80
2023-03-08T09:31:14.993Z,13.65
2023-03-08T09:33:48.356Z,13.68
2023-03-08T09:36:16.472Z,13.32
2023-03-08T09:38:44.385Z,13.43
2023-03-08T09:41:25.840Z,13.43
2023-03-08T09:44:12.200Z,14.30
2023-03-08T09:46:49.082Z,13.02
2023-03-08T09:49:37.217Z,14.82
2023-03-08T09:52:11.004Z,14.13
2023-03-08T09:54:39.533Z,12.82
2023-03-08T09:57:11.952Z,13.07
2023-03-08T09:59:54.026Z,14.13
2023-03-08T10:02:21.665Z,13.83
2023-03-08T10:05:02.484Z,13.50
2023-03-08T10:08:01.767Z,14.52
2023-03-08T10:10:48.037Z,13.18
2023-03-08T10:13:15.680Z,14.23
2023-03-08T10:15:46.504Z,13.38
2023-03-08T10:18:36.633Z,13.75
2023-03-08T10:21:04.365Z,13.83
2023-03-08T10:23:33.706Z,14.48
2023-03-08T10:26:02.926Z,14.27
2023-03-08T10:28:30.603Z,15.27
2023-03-08T10:30:59.596Z,14.43
2023-03-08T10:33:31.146Z,13.52
2023-03-08T10:36:03.792Z,13.90
2023-03-08T10:38:32.946Z,13.88
2023-03-08T10:41:01.906Z,13.20
2023-03-08T10:43:32.602Z,13.83
2023-03-08T10:46:20.571Z,13.43
2023-03-08T10:48:48.704Z,12.88
2023-03-08T10:51:26.917Z,12.00
2023-03-08T10:53:58.434Z,11.30
2023-03-08T10:56:29.159Z,11.90
2023-03-08T10:58:57.765Z,10.98
2023-03-08T11:01:27.362Z,10.65
2023-03-08T11:04:07.215Z,10.75
2023-03-08T11:06:35.412Z,12.35
2023-03-08T11:09:04.661Z,16.77
2023-03-08T11:11:41.201Z,16.48
2023-03-08T11:14:10.488Z,15.27
2023-03-08T11:16:38.129Z,15.10
2023-03-08T11:19:23.858Z,15.50
2023-03-08T11:22:06.567Z,15.52
2023-03-08T11:24:52.970Z,15.27
2023-03-08T11:27:23.402Z,15.88
2023-03-08T11:30:01.186Z,14.73
2023-03-08T11:32:58.621Z,14.00
2023-03-08T11:35:46.633Z,12.82
2023-03-08T11:38:20.402Z,12.63
2023-03-08T11:40:57.193Z,11.57
2023-03-08T11:43:31.023Z,12.95
2023-03-08T11:46:18.922Z,11.65
2023-03-08T11:49:01.910Z,10.95
2023-03-08T11:51:33.152Z,11.43
2023-03-08T11:54:22.376Z,10.90
2023-03-08T11:56:55.890Z,11.40
2023-03-08T11:59:34.376Z,10.77
2023-03-08T12:02:12.495Z,10.52
2023-03-08T12:04:59.282Z,10.23
2023-03-08T12:07:38.912Z,10.02
2023-03-08T12:10:25.479Z,9.45
2023-03-08T12:13:11.296Z,10.30
2023-03-08T12:15:52.794Z,11.82
